Latest Weather Observations for Argyle

IDD60801

Issued at 11:31 pm CST Saturday 5 September 2015 (issued every 30 minutes, with the page automatically refreshed every 10 minutes)

About weather observations | Map of weather stations | Latest weather observations for NT | Other Formats
Station Details ID: 002064 Name: ARGYLE AERODROME Lat: -16.64 Lon: 128.45 Height: 164.0 m
Data from the previous 72 hours. | See also: Recent months at Argyle
Date/Time
CST
Temp
°C
App
Temp
°C
Dew
Point
Rel
Hum
%
Delta-T
°C
Wind Press
QNH
hPa
Press
MSL
hPa
Rain
since 9 am
mm
Dir
 
Spd
km/h
Gust
km/h
Spd
kts
Gust
kts
05/11:00pm 28.5 25.7 1.8 18 13.1 WSW 6 9 3 5 1016.5 - 0.0
05/10:30pm 29.5 28.2 3.9 19 13.1 CALM 0 0 0 0 1016.7 1015.6 0.0
05/10:00pm 29.9 28.3 2.6 17 13.7 CALM 0 0 0 0 1016.6 - 0.0
05/09:30pm 28.4 26.1 2.7 19 12.8 SW 4 9 2 5 1016.4 - 0.0
05/09:00pm 29.4 25.7 2.3 17 13.5 W 11 13 6 7 1016.2 - 0.0
05/08:30pm 31.1 27.2 1.1 14 14.8 NW 11 13 6 7 1015.8 - 0.0
05/08:00pm 31.6 28.1 1.5 14 15.0 NNW 9 9 5 5 1015.4 - 0.0
05/07:30pm 32.5 28.9 0.9 13 15.7 NW 9 11 5 6 1015.0 1013.9 0.0
05/06:30pm 34.2 32.6 2.6 13 16.3 CALM 0 2 0 1 1014.3 - 0.0
05/06:00pm 34.6 31.5 1.2 12 16.9 ENE 7 11 4 6 1014.1 - 0.0
05/05:30pm 35.2 30.7 -0.3 10 17.6 E 13 20 7 11 1013.9 - 0.0
05/05:00pm 35.4 32.0 1.6 12 17.3 E 9 17 5 9 1013.8 - 0.0
05/04:30pm 35.6 32.6 1.7 12 17.4 NNW 7 13 4 7 1013.7 1012.6 0.0
05/04:00pm 35.4 31.7 0.2 11 17.6 NE 9 17 5 9 1013.8 - 0.0
05/03:30pm 35.4 31.8 0.7 11 17.5 NNE 9 15 5 8 1014.2 - 0.0
05/03:00pm 34.9 30.8 -0.3 10 17.4 N 11 22 6 12 1014.4 - 0.0
05/02:30pm 34.5 30.7 -0.9 10 17.3 N 9 19 5 10 1014.9 - 0.0
05/02:00pm 34.5 28.8 -1.0 10 17.3 NNE 19 24 10 13 1015.5 - 0.0
05/01:30pm 33.9 29.3 -0.8 11 16.9 ENE 13 24 7 13 1016.1 1015.0 0.0
05/01:00pm 34.8 30.2 -1.1 10 17.5 NNE 13 24 7 13 1016.8 - 0.0
05/12:30pm 33.9 29.4 -0.4 11 16.8 ENE 13 20 7 11 1017.4 - 0.0
05/12:00pm 33.2 27.4 -1.4 11 16.6 NNE 19 26 10 14 1017.9 - 0.0
05/11:30am 32.7 28.2 0.0 12 16.0 E 13 22 7 12 1018.7 - 0.0
05/11:00am 32.1 26.3 -1.7 11 16.0 NNE 19 28 10 15 1019.1 - 0.0
05/10:30am 31.5 25.8 -1.0 12 15.5 ENE 19 28 10 15 1019.4 1018.3 0.0
05/10:00am 31.2 26.4 0.0 13 15.1 NE 15 22 8 12 1019.4 - 0.0
05/09:30am 29.7 26.6 3.6 19 13.3 E 9 15 5 8 1019.4 - 0.0
05/09:00am 28.8 26.2 4.2 21 12.6 ENE 7 11 4 6 1019.3 - 0.0
05/08:30am 27.7 25.0 3.7 21 12.1 ESE 7 9 4 5 1019.0 - 0.0
05/08:00am 25.7 24.9 6.6 29 10.0 CALM 0 0 0 0 1018.5 - 0.0
05/07:30am 23.4 22.4 5.7 32 9.0 CALM 0 0 0 0 1018.0 1017.0 0.0
05/07:00am 23.4 21.9 6.9 34 8.6 SE 4 7 2 4 1017.5 - 0.0
05/06:30am 23.9 23.0 6.0 31 9.2 CALM 0 6 0 3 1017.2 - 0.0
05/06:00am 22.1 20.5 7.8 39 7.5 WNW 6 7 3 4 1016.8 - 0.0
05/05:30am 24.2 22.4 7.8 35 8.7 SSE 7 9 4 5 1016.4 - 0.0
05/05:00am 24.6 23.0 7.9 34 8.9 ESE 6 9 3 5 1016.3 - 0.0
05/04:30am 23.8 22.7 8.5 37 8.2 SSE 4 6 2 3 1016.2 1015.1 0.0
05/04:00am 23.5 23.4 9.6 41 7.6 CALM 0 0 0 0 1016.1 - 0.0
05/03:30am 23.4 23.5 10.2 43 7.3 CALM 0 7 0 4 1016.1 - 0.0
05/03:00am 24.9 25.5 12.0 44 7.4 CALM 0 4 0 2 1016.2 - 0.0
05/02:30am 24.6 24.1 10.9 42 7.7 WNW 4 9 2 5 1016.3 - 0.0
05/02:00am 25.9 25.3 12.3 42 7.9 SE 7 7 4 4 1016.5 - 0.0
05/01:30am 25.8 24.6 11.7 41 8.1 SSE 9 11 5 6 1016.9 1015.8 0.0
05/01:00am 25.2 23.6 10.1 38 8.4 SSW 9 13 5 7 1017.0 - 0.0
05/12:30am 25.8 26.3 11.7 41 8.1 CALM 0 0 0 0 1016.9 - 0.0
05/12:00am 26.0 25.6 11.2 39 8.4 W 4 7 2 4 1017.1 - 0.0
 
Date/Time
CST
Temp
°C
App
Temp
°C
Dew
Point
Rel
Hum
%
Delta-T
°C
Wind Press
QNH
hPa
Press
MSL
hPa
Rain
since 9 am
mm
Dir
 
Spd
km/h
Gust
km/h
Spd
kts
Gust
kts
04/11:30pm 27.4 25.9 10.4 34 9.6 NNW 9 13 5 7 1017.0 - 0.0
04/11:00pm 28.3 25.1 9.8 31 10.4 N 17 19 9 10 1017.0 - 0.0
04/10:30pm 29.8 25.2 5.5 21 12.8 N 19 24 10 13 1017.1 1016.1 0.0
04/10:00pm 29.3 26.7 4.2 20 12.9 W 7 7 4 4 1016.9 - 0.0
04/09:30pm 29.5 26.8 3.6 19 13.2 W 7 9 4 5 1016.7 - 0.0
04/09:00pm 30.1 27.0 3.4 18 13.6 W 9 9 5 5 1016.5 - 0.0
04/08:30pm 31.6 28.5 3.8 17 14.4 N 9 11 5 6 1016.2 - 0.0
04/08:00pm 31.6 28.6 4.2 17 14.3 NNE 9 11 5 6 1015.9 - 0.0
04/07:30pm 32.0 28.5 3.6 16 14.7 NNE 11 13 6 7 1015.5 1014.4 0.0
04/07:00pm 33.0 29.3 2.5 14 15.6 NNE 11 15 6 8 1015.1 - 0.0
04/06:30pm 34.5 30.7 1.7 12 16.7 NE 11 20 6 11 1014.8 - 0.0
04/06:00pm 35.4 31.4 0.7 11 17.5 ENE 11 17 6 9 1014.6 - 0.0
04/05:00pm 35.6 31.2 0.3 11 17.7 NNE 13 20 7 11 1014.3 - 0.0
04/04:30pm 35.9 31.3 -1.2 9 18.2 E 13 26 7 14 1014.4 1013.3 0.0
04/04:00pm 36.2 31.3 -0.3 10 18.2 E 15 24 8 13 1014.5 - 0.0
04/03:30pm 36.2 31.4 0.2 10 18.1 E 15 28 8 15 1014.6 - 0.0
04/03:00pm 35.6 31.7 1.2 11 17.5 E 11 19 6 10 1014.9 - 0.0
04/02:30pm 35.2 31.0 1.4 12 17.2 E 13 22 7 12 1015.5 - 0.0
04/02:00pm 35.5 30.4 0.5 11 17.6 ESE 17 30 9 16 1016.0 - 0.0
04/01:30pm 35.3 30.4 2.1 12 17.1 E 17 26 9 14 1016.6 1015.5 0.0
04/01:00pm 35.1 29.7 1.1 11 17.2 NE 19 30 10 16 1017.1 - 0.0
04/12:30pm 34.1 29.9 1.5 12 16.5 E 13 22 7 12 1017.7 - 0.0
04/12:00pm 33.2 28.9 1.3 13 16.0 E 13 22 7 12 1018.2 - 0.0
04/11:30am 32.2 27.4 0.0 12 15.7 E 15 24 8 13 1018.8 - 0.0
04/11:00am 30.8 26.3 -0.6 13 15.0 ESE 13 20 7 11 1019.1 - 0.0
04/10:30am 29.9 24.8 -1.6 13 14.7 E 15 24 8 13 1019.3 1018.2 0.0
04/10:00am 29.4 25.2 -1.1 14 14.3 E 11 17 6 9 1019.3 - 0.0
04/09:30am 28.5 23.4 -1.6 14 13.9 E 15 26 8 14 1019.3 - 0.0
04/09:00am 28.1 24.4 0.0 16 13.3 E 9 15 5 8 1019.2 - 0.0
04/08:30am 26.6 24.8 3.6 22 11.5 WSW 2 6 1 3 1018.9 - 0.0
04/08:00am 23.9 21.3 4.1 27 9.8 SW 7 9 4 5 1018.7 - 0.0
04/07:30am 22.5 19.9 3.2 28 9.3 SW 6 9 3 5 1018.4 1017.4 0.0
04/07:00am 22.2 19.2 2.0 26 9.5 WSW 7 9 4 5 1017.9 - 0.0
04/06:30am 22.2 20.5 1.7 26 9.6 CALM 0 0 0 0 1017.4 - 0.0
04/06:00am 22.4 20.9 2.8 27 9.4 CALM 0 0 0 0 1016.9 - 0.0
04/05:30am 22.8 19.9 2.5 26 9.7 ENE 7 9 4 5 1016.5 - 0.0
04/05:00am 23.7 21.0 3.5 26 9.9 ESE 7 9 4 5 1016.2 - 0.0
04/04:30am 23.2 21.0 5.1 31 9.1 E 6 7 3 4 1016.1 1015.0 0.0
04/04:00am 23.6 21.1 3.6 27 9.8 NE 6 7 3 4 1016.0 - 0.0
04/03:30am 23.5 20.1 2.1 24 10.2 N 9 11 5 6 1016.2 - 0.0
04/03:00am 25.3 22.1 3.2 24 10.9 SE 9 13 5 7 1016.1 - 0.0
04/02:30am 25.3 21.7 2.9 23 11.0 SSE 11 13 6 7 - - 0.0
04/02:00am 24.2 20.7 3.4 26 10.2 SSE 11 15 6 8 1016.4 - 0.0
04/01:30am 24.2 21.7 4.7 28 9.8 S 7 11 4 6 1016.7 1015.6 0.0
04/01:00am 24.0 21.6 4.3 28 9.8 SE 6 9 3 5 1016.9 - 0.0
04/12:30am 24.5 22.5 4.6 27 10.0 ESE 4 17 2 9 1017.2 - 0.0
04/12:00am 24.1 21.6 4.8 28 9.7 S 7 17 4 9 1017.2 - 0.0
 
Date/Time
CST
Temp
°C
App
Temp
°C
Dew
Point
Rel
Hum
%
Delta-T
°C
Wind Press
QNH
hPa
Press
MSL
hPa
Rain
since 9 am
mm
Dir
 
Spd
km/h
Gust
km/h
Spd
kts
Gust
kts
03/11:30pm 28.1 25.4 3.5 20 12.4 SSW 7 11 4 6 1017.1 - 0.0
03/11:00pm 28.1 24.7 3.9 21 12.3 SW 11 13 6 7 1017.0 - 0.0
03/10:30pm 28.4 24.8 3.1 19 12.7 WSW 11 13 6 7 1017.0 1015.9 0.0
03/10:00pm 28.8 25.2 2.8 19 13.0 SW 11 13 6 7 1017.0 - 0.0
03/09:30pm 29.7 26.0 2.6 17 13.6 WSW 11 11 6 6 1016.8 - 0.0
03/09:00pm 29.5 26.1 2.1 17 13.6 WSW 9 13 5 7 1016.6 - 0.0
03/08:30pm 29.4 26.2 3.0 18 13.3 W 9 9 5 5 1016.3 - 0.0
03/08:00pm 31.0 27.4 2.9 16 14.3 N 11 11 6 6 1015.9 - 0.0
03/07:30pm 31.7 28.4 2.2 15 14.9 N 9 11 5 6 1015.5 1014.4 0.0
03/07:00pm 32.4 28.5 1.4 14 15.5 NNE 11 15 6 8 1015.1 - 0.0
03/06:30pm 33.6 30.0 0.7 12 16.4 NE 9 13 5 7 1014.8 - 0.0
03/06:00pm 34.7 30.9 -0.4 10 17.3 ENE 9 13 5 7 1014.7 - 0.0
03/05:30pm 34.9 31.4 -1.7 9 17.7 NE 7 13 4 7 1014.6 - 0.0
03/05:00pm 35.1 31.2 -1.6 9 17.8 E 9 15 5 8 1014.4 - 0.0
03/04:30pm 34.9 31.7 0.7 11 17.2 ESE 7 13 4 7 1014.5 1013.4 0.0
03/04:00pm 34.7 31.5 -0.8 10 17.4 NE 6 11 3 6 1014.6 - 0.0
03/03:30pm 34.6 30.2 -2.1 9 17.6 ENE 11 17 6 9 1014.8 - 0.0
03/03:00pm 34.8 30.6 -3.7 8 18.0 NE 9 19 5 10 1015.1 - 0.0
03/02:30pm 34.4 31.0 -0.8 10 17.2 ESE 7 11 4 6 1015.7 - 0.0
03/02:00pm 33.3 28.4 -3.7 9 17.1 ENE 13 20 7 11 1016.2 - 0.0
03/01:30pm 33.6 28.8 -2.2 10 17.0 ESE 13 37 7 20 1016.5 1015.4 0.0
03/01:00pm 32.7 27.4 -4.0 9 16.8 ESE 15 24 8 13 1017.1 - 0.0
03/12:30pm 32.2 27.4 -2.9 10 16.3 ESE 13 20 7 11 1017.8 - 0.0
03/12:00pm 31.1 26.7 -2.1 11 15.5 SE 11 17 6 9 1018.4 - 0.0
03/11:30am 30.6 25.8 -2.6 11 15.3 ESE 13 22 7 12 1019.0 - 0.0
03/11:00am 29.9 24.9 -4.7 10 15.3 ESE 13 22 7 12 1019.4 - 0.0
03/10:30am 29.2 23.8 -4.7 10 14.9 ESE 15 22 8 12 1019.6 1018.5 0.0
03/10:00am 28.8 23.4 -4.3 11 14.6 ESE 15 24 8 13 1019.4 - 0.0
03/09:30am 28.0 22.4 -3.0 13 13.9 ESE 17 26 9 14 1019.3 - 0.0
03/09:00am 27.0 21.0 -3.2 13 13.4 SE 19 28 10 15 1019.2 - 0.0
03/08:30am 26.6 21.9 -1.9 15 12.9 SE 13 19 7 10 1019.0 - 0.0
03/08:00am 25.4 20.8 -0.9 17 12.0 SE 13 20 7 11 1018.7 - 0.0
03/07:30am 24.6 20.4 -0.6 19 11.5 SSE 11 15 6 8 1018.0 1017.0 0.0
03/07:00am 24.6 19.6 -1.0 18 11.6 SSE 15 20 8 11 1017.3 - 0.0
03/06:30am 24.7 19.7 -1.2 18 11.7 SE 15 20 8 11 1016.7 - 0.0
03/06:00am 25.4 20.4 -1.2 17 12.1 SSE 15 26 8 14 1016.4 - 0.0
03/05:30am 25.0 20.9 -0.5 18 11.7 SE 11 17 6 9 1016.0 - 0.0
03/05:00am 26.3 21.7 -0.8 17 12.5 SSE 13 24 7 13 1015.9 - 0.0
03/04:30am 25.8 21.7 2.4 22 11.4 SSE 13 20 7 11 1015.9 1014.8 0.0
03/04:00am 25.3 21.3 2.8 23 11.0 S 13 20 7 11 1015.6 - 0.0
03/03:30am 25.3 23.1 6.0 29 10.0 S 7 9 4 5 1015.7 - 0.0
03/03:00am 24.5 21.6 6.4 31 9.4 W 11 13 6 7 1015.6 - 0.0
03/02:30am 24.3 21.1 4.9 28 9.8 WSW 11 13 6 7 1015.7 - 0.0
03/02:00am 24.5 22.6 6.7 32 9.3 ENE 6 9 3 5 1015.9 - 0.0
03/01:30am 25.0 23.8 6.4 30 9.7 ENE 2 7 1 4 1015.8 1014.7 0.0

Other Formats:

Comma delimited format used in spreadsheet applications
http://www.bom.gov.au/fwo/IDD60801/IDD60801.94217.axf

JavaScript Object Notation format (JSON) in row-major order
http://www.bom.gov.au/fwo/IDD60801/IDD60801.94217.json